sensor_id;sensor_type;location;lat;lon;timestamp;temperature;humidity
17152;DHT22;8691;50.828;4.700;2022-08-25T00:00:39;21.10;99.90
17152;DHT22;8691;50.828;4.700;2022-08-25T00:03:04;21.00;99.90
17152;DHT22;8691;50.828;4.700;2022-08-25T00:05:32;20.90;99.90
17152;DHT22;8691;50.828;4.700;2022-08-25T00:07:59;20.90;99.90
17152;DHT22;8691;50.828;4.700;2022-08-25T00:10:26;20.80;99.90
17152;DHT22;8691;50.828;4.700;2022-08-25T00:12:52;20.80;99.90
17152;DHT22;8691;50.828;4.700;2022-08-25T00:15:19;20.90;99.90
17152;DHT22;8691;50.828;4.700;2022-08-25T00:17:47;20.80;99.90
17152;DHT22;8691;50.828;4.700;2022-08-25T00:20:14;20.80;99.90
17152;DHT22;8691;50.828;4.700;2022-08-25T00:22:40;20.80;99.90
17152;DHT22;8691;50.828;4.700;2022-08-25T00:25:08;20.80;99.90
17152;DHT22;8691;50.828;4.700;2022-08-25T00:27:34;20.80;99.90
17152;DHT22;8691;50.828;4.700;2022-08-25T00:30:01;20.70;99.90
17152;DHT22;8691;50.828;4.700;2022-08-25T00:32:28;20.60;99.90
17152;DHT22;8691;50.828;4.700;2022-08-25T00:34:55;20.60;99.90
17152;DHT22;8691;50.828;4.700;2022-08-25T00:37:21;20.50;99.90
17152;DHT22;8691;50.828;4.700;2022-08-25T00:39:48;20.60;99.90
17152;DHT22;8691;50.828;4.700;2022-08-25T00:42:15;20.60;99.90
17152;DHT22;8691;50.828;4.700;2022-08-25T00:44:42;20.50;99.90
17152;DHT22;8691;50.828;4.700;2022-08-25T00:47:10;20.50;99.90
17152;DHT22;8691;50.828;4.700;2022-08-25T00:49:41;20.30;99.90
17152;DHT22;8691;50.828;4.700;2022-08-25T00:52:14;20.30;99.90
17152;DHT22;8691;50.828;4.700;2022-08-25T00:54:50;20.20;99.90
17152;DHT22;8691;50.828;4.700;2022-08-25T00:57:08;20.10;99.90
17152;DHT22;8691;50.828;4.700;2022-08-25T00:59:34;20.10;99.90
17152;DHT22;8691;50.828;4.700;2022-08-25T01:02:02;20.00;99.90
17152;DHT22;8691;50.828;4.700;2022-08-25T01:04:28;20.00;99.90
17152;DHT22;8691;50.828;4.700;2022-08-25T01:06:56;20.00;99.90
17152;DHT22;8691;50.828;4.700;2022-08-25T01:09:23;20.00;99.90
17152;DHT22;8691;50.828;4.700;2022-08-25T01:11:50;20.00;99.90
17152;DHT22;8691;50.828;4.700;2022-08-25T01:14:18;20.00;99.90
17152;DHT22;8691;50.828;4.700;2022-08-25T01:16:44;19.90;99.90
17152;DHT22;8691;50.828;4.700;2022-08-25T01:19:11;19.90;99.90
17152;DHT22;8691;50.828;4.700;2022-08-25T01:21:42;19.90;99.90
17152;DHT22;8691;50.828;4.700;2022-08-25T01:24:09;19.90;99.90
17152;DHT22;8691;50.828;4.700;2022-08-25T01:26:36;19.90;99.90
17152;DHT22;8691;50.828;4.700;2022-08-25T01:29:04;19.90;99.90
17152;DHT22;8691;50.828;4.700;2022-08-25T01:31:48;19.80;99.90
17152;DHT22;8691;50.828;4.700;2022-08-25T01:34:14;19.80;99.90
17152;DHT22;8691;50.828;4.700;2022-08-25T01:36:42;19.70;99.90
17152;DHT22;8691;50.828;4.700;2022-08-25T01:39:09;19.60;99.90
17152;DHT22;8691;50.828;4.700;2022-08-25T01:44:15;19.60;99.90
17152;DHT22;8691;50.828;4.700;2022-08-25T01:46:41;19.60;99.90
17152;DHT22;8691;50.828;4.700;2022-08-25T01:49:08;19.50;99.90
17152;DHT22;8691;50.828;4.700;2022-08-25T01:51:39;19.50;99.90
17152;DHT22;8691;50.828;4.700;2022-08-25T01:54:04;19.60;99.90
17152;DHT22;8691;50.828;4.700;2022-08-25T01:56:31;19.60;99.90
17152;DHT22;8691;50.828;4.700;2022-08-25T01:58:59;19.50;99.90
17152;DHT22;8691;50.828;4.700;2022-08-25T02:01:26;19.50;99.90
17152;DHT22;8691;50.828;4.700;2022-08-25T02:03:53;19.50;99.90
17152;DHT22;8691;50.828;4.700;2022-08-25T02:06:24;19.40;99.90
17152;DHT22;8691;50.828;4.700;2022-08-25T02:08:49;19.40;99.90
17152;DHT22;8691;50.828;4.700;2022-08-25T02:11:13;19.30;99.90
17152;DHT22;8691;50.828;4.700;2022-08-25T02:13:40;19.30;99.90
17152;DHT22;8691;50.828;4.700;2022-08-25T02:16:07;19.30;99.90
17152;DHT22;8691;50.828;4.700;2022-08-25T02:18:34;19.30;99.90
17152;DHT22;8691;50.828;4.700;2022-08-25T02:21:01;19.30;99.90
17152;DHT22;8691;50.828;4.700;2022-08-25T02:23:31;19.30;99.90
17152;DHT22;8691;50.828;4.700;2022-08-25T02:25:55;19.30;99.90
17152;DHT22;8691;50.828;4.700;2022-08-25T02:28:22;19.30;99.90
17152;DHT22;8691;50.828;4.700;2022-08-25T02:30:48;19.30;99.90
17152;DHT22;8691;50.828;4.700;2022-08-25T02:33:16;19.20;99.90
17152;DHT22;8691;50.828;4.700;2022-08-25T02:35:43;19.20;99.90
17152;DHT22;8691;50.828;4.700;2022-08-25T02:38:10;19.10;99.90
17152;DHT22;8691;50.828;4.700;2022-08-25T02:40:37;19.10;99.90
17152;DHT22;8691;50.828;4.700;2022-08-25T02:43:04;19.10;99.90
17152;DHT22;8691;50.828;4.700;2022-08-25T02:45:31;19.10;99.90
17152;DHT22;8691;50.828;4.700;2022-08-25T02:47:57;19.20;99.90
17152;DHT22;8691;50.828;4.700;2022-08-25T02:50:24;19.10;99.90
17152;DHT22;8691;50.828;4.700;2022-08-25T02:52:52;19.00;99.90
17152;DHT22;8691;50.828;4.700;2022-08-25T02:55:19;18.90;99.90
17152;DHT22;8691;50.828;4.700;2022-08-25T02:57:47;18.90;99.90
17152;DHT22;8691;50.828;4.700;2022-08-25T03:00:14;18.90;99.90
17152;DHT22;8691;50.828;4.700;2022-08-25T03:02:41;18.80;99.90
17152;DHT22;8691;50.828;4.700;2022-08-25T03:05:07;18.80;99.90
17152;DHT22;8691;50.828;4.700;2022-08-25T03:07:34;18.80;99.90
17152;DHT22;8691;50.828;4.700;2022-08-25T03:10:08;18.80;99.90
17152;DHT22;8691;50.828;4.700;2022-08-25T03:12:34;18.90;99.90
17152;DHT22;8691;50.828;4.700;2022-08-25T03:15:01;18.80;99.90
17152;DHT22;8691;50.828;4.700;2022-08-25T03:17:28;18.90;99.90
17152;DHT22;8691;50.828;4.700;2022-08-25T03:19:55;18.80;99.90
17152;DHT22;8691;50.828;4.700;2022-08-25T03:22:21;18.70;99.90
17152;DHT22;8691;50.828;4.700;2022-08-25T03:24:48;18.70;99.90
17152;DHT22;8691;50.828;4.700;2022-08-25T03:27:15;18.70;99.90
17152;DHT22;8691;50.828;4.700;2022-08-25T03:29:42;18.70;99.90
17152;DHT22;8691;50.828;4.700;2022-08-25T03:32:09;18.60;99.90
17152;DHT22;8691;50.828;4.700;2022-08-25T03:34:36;18.50;99.90
17152;DHT22;8691;50.828;4.700;2022-08-25T03:37:02;18.50;99.90
17152;DHT22;8691;50.828;4.700;2022-08-25T03:39:30;18.50;99.90
17152;DHT22;8691;50.828;4.700;2022-08-25T03:41:57;18.50;99.90
17152;DHT22;8691;50.828;4.700;2022-08-25T03:44:24;18.50;99.90
17152;DHT22;8691;50.828;4.700;2022-08-25T03:46:51;18.50;99.90
17152;DHT22;8691;50.828;4.700;2022-08-25T03:49:19;18.50;99.90
17152;DHT22;8691;50.828;4.700;2022-08-25T03:51:45;18.50;99.90
17152;DHT22;8691;50.828;4.700;2022-08-25T03:54:11;18.40;99.90
17152;DHT22;8691;50.828;4.700;2022-08-25T03:56:37;18.40;99.90
17152;DHT22;8691;50.828;4.700;2022-08-25T03:59:04;18.40;99.90
17152;DHT22;8691;50.828;4.700;2022-08-25T04:01:31;18.40;99.90
17152;DHT22;8691;50.828;4.700;2022-08-25T04:03:59;18.40;99.90
17152;DHT22;8691;50.828;4.700;2022-08-25T04:06:26;18.40;99.90
17152;DHT22;8691;50.828;4.700;2022-08-25T04:08:53;18.40;99.90
17152;DHT22;8691;50.828;4.700;2022-08-25T04:11:20;18.40;99.90
17152;DHT22;8691;50.828;4.700;2022-08-25T04:13:47;18.40;99.90
17152;DHT22;8691;50.828;4.700;2022-08-25T04:16:16;18.40;99.90
17152;DHT22;8691;50.828;4.700;2022-08-25T04:18:41;18.50;99.90
17152;DHT22;8691;50.828;4.700;2022-08-25T04:21:09;18.40;99.90
17152;DHT22;8691;50.828;4.700;2022-08-25T04:23:40;18.30;99.90
17152;DHT22;8691;50.828;4.700;2022-08-25T04:26:09;18.30;99.90
17152;DHT22;8691;50.828;4.700;2022-08-25T04:28:36;18.40;99.90
17152;DHT22;8691;50.828;4.700;2022-08-25T04:31:06;18.50;99.90
17152;DHT22;8691;50.828;4.700;2022-08-25T04:33:32;18.40;99.90
17152;DHT22;8691;50.828;4.700;2022-08-25T04:35:59;18.50;99.90
17152;DHT22;8691;50.828;4.700;2022-08-25T04:38:27;18.40;99.90
17152;DHT22;8691;50.828;4.700;2022-08-25T04:41:00;18.40;99.90
17152;DHT22;8691;50.828;4.700;2022-08-25T04:43:27;18.40;99.90
17152;DHT22;8691;50.828;4.700;2022-08-25T04:45:54;18.40;99.90
17152;DHT22;8691;50.828;4.700;2022-08-25T04:48:21;18.30;99.90
17152;DHT22;8691;50.828;4.700;2022-08-25T04:50:48;18.40;99.90
17152;DHT22;8691;50.828;4.700;2022-08-25T04:53:15;18.40;99.90
17152;DHT22;8691;50.828;4.700;2022-08-25T04:55:45;18.60;99.90
17152;DHT22;8691;50.828;4.700;2022-08-25T04:58:13;18.60;99.90
17152;DHT22;8691;50.828;4.700;2022-08-25T05:00:39;18.70;99.90
17152;DHT22;8691;50.828;4.700;2022-08-25T05:03:06;18.70;99.90
17152;DHT22;8691;50.828;4.700;2022-08-25T05:05:34;18.80;99.90
17152;DHT22;8691;50.828;4.700;2022-08-25T05:08:03;18.80;99.90
17152;DHT22;8691;50.828;4.700;2022-08-25T05:10:27;18.80;99.90
17152;DHT22;8691;50.828;4.700;2022-08-25T05:12:54;18.80;99.90
17152;DHT22;8691;50.828;4.700;2022-08-25T05:15:21;18.80;99.90
17152;DHT22;8691;50.828;4.700;2022-08-25T05:18:05;18.70;99.90
17152;DHT22;8691;50.828;4.700;2022-08-25T05:20:35;18.70;99.90
17152;DHT22;8691;50.828;4.700;2022-08-25T05:22:59;18.70;99.90
17152;DHT22;8691;50.828;4.700;2022-08-25T05:25:26;18.80;99.90
17152;DHT22;8691;50.828;4.700;2022-08-25T05:27:53;18.90;99.90
17152;DHT22;8691;50.828;4.700;2022-08-25T05:30:20;19.00;99.90
17152;DHT22;8691;50.828;4.700;2022-08-25T05:32:47;19.00;99.90
17152;DHT22;8691;50.828;4.700;2022-08-25T05:35:14;19.20;99.90
17152;DHT22;8691;50.828;4.700;2022-08-25T05:37:41;19.50;99.90
17152;DHT22;8691;50.828;4.700;2022-08-25T05:40:08;19.50;99.90
17152;DHT22;8691;50.828;4.700;2022-08-25T05:42:35;19.60;99.90
17152;DHT22;8691;50.828;4.700;2022-08-25T05:45:05;19.80;99.90
17152;DHT22;8691;50.828;4.700;2022-08-25T05:47:29;19.80;99.90
17152;DHT22;8691;50.828;4.700;2022-08-25T05:49:55;20.00;99.90
17152;DHT22;8691;50.828;4.700;2022-08-25T05:52:25;20.70;99.90
17152;DHT22;8691;50.828;4.700;2022-08-25T05:54:50;20.70;99.90
17152;DHT22;8691;50.828;4.700;2022-08-25T05:57:17;21.90;99.90
17152;DHT22;8691;50.828;4.700;2022-08-25T05:59:43;23.40;99.90
17152;DHT22;8691;50.828;4.700;2022-08-25T06:02:10;24.50;99.90
17152;DHT22;8691;50.828;4.700;2022-08-25T06:04:55;26.00;99.90
17152;DHT22;8691;50.828;4.700;2022-08-25T06:07:22;27.20;99.20
17152;DHT22;8691;50.828;4.700;2022-08-25T06:09:49;29.40;95.20
17152;DHT22;8691;50.828;4.700;2022-08-25T06:12:16;29.40;94.90
17152;DHT22;8691;50.828;4.700;2022-08-25T06:14:43;30.00;92.70
17152;DHT22;8691;50.828;4.700;2022-08-25T06:17:10;30.70;91.50
17152;DHT22;8691;50.828;4.700;2022-08-25T06:19:37;31.00;90.60
17152;DHT22;8691;50.828;4.700;2022-08-25T06:22:04;32.20;82.90
17152;DHT22;8691;50.828;4.700;2022-08-25T06:24:31;33.00;79.70
17152;DHT22;8691;50.828;4.700;2022-08-25T06:26:58;33.40;76.80
17152;DHT22;8691;50.828;4.700;2022-08-25T06:29:25;33.90;73.00
17152;DHT22;8691;50.828;4.700;2022-08-25T06:31:52;34.50;69.00
17152;DHT22;8691;50.828;4.700;2022-08-25T06:34:19;35.10;66.90
17152;DHT22;8691;50.828;4.700;2022-08-25T06:36:46;35.10;66.20
17152;DHT22;8691;50.828;4.700;2022-08-25T06:39:13;35.70;65.20
17152;DHT22;8691;50.828;4.700;2022-08-25T06:41:40;35.90;64.90
17152;DHT22;8691;50.828;4.700;2022-08-25T06:44:07;36.10;61.30
17152;DHT22;8691;50.828;4.700;2022-08-25T06:46:34;35.30;64.70
17152;DHT22;8691;50.828;4.700;2022-08-25T06:49:00;34.60;64.90
17152;DHT22;8691;50.828;4.700;2022-08-25T06:51:27;33.90;65.00
17152;DHT22;8691;50.828;4.700;2022-08-25T06:53:54;33.40;65.60
17152;DHT22;8691;50.828;4.700;2022-08-25T06:56:21;32.50;67.80
17152;DHT22;8691;50.828;4.700;2022-08-25T06:58:48;31.60;70.10
17152;DHT22;8691;50.828;4.700;2022-08-25T07:01:18;31.40;70.20
17152;DHT22;8691;50.828;4.700;2022-08-25T07:03:42;31.00;71.80
17152;DHT22;8691;50.828;4.700;2022-08-25T07:06:09;30.60;74.50
17152;DHT22;8691;50.828;4.700;2022-08-25T07:08:36;30.80;74.40
17152;DHT22;8691;50.828;4.700;2022-08-25T07:11:06;30.90;74.20
17152;DHT22;8691;50.828;4.700;2022-08-25T07:13:32;30.90;73.70
17152;DHT22;8691;50.828;4.700;2022-08-25T07:15:59;30.70;74.40
17152;DHT22;8691;50.828;4.700;2022-08-25T07:18:27;30.40;76.10
17152;DHT22;8691;50.828;4.700;2022-08-25T07:20:54;30.70;74.70
17152;DHT22;8691;50.828;4.700;2022-08-25T07:23:21;30.90;74.20
17152;DHT22;8691;50.828;4.700;2022-08-25T07:25:48;31.30;73.70
17152;DHT22;8691;50.828;4.700;2022-08-25T07:28:15;31.90;73.30
17152;DHT22;8691;50.828;4.700;2022-08-25T07:30:42;32.80;71.10
17152;DHT22;8691;50.828;4.700;2022-08-25T07:33:09;34.00;67.20
17152;DHT22;8691;50.828;4.700;2022-08-25T07:35:36;34.20;66.10
17152;DHT22;8691;50.828;4.700;2022-08-25T07:38:03;34.10;65.50
17152;DHT22;8691;50.828;4.700;2022-08-25T07:40:33;34.00;66.20
17152;DHT22;8691;50.828;4.700;2022-08-25T07:43:00;33.90;67.20
17152;DHT22;8691;50.828;4.700;2022-08-25T07:45:27;34.70;65.80
17152;DHT22;8691;50.828;4.700;2022-08-25T07:47:59;35.50;63.50
17152;DHT22;8691;50.828;4.700;2022-08-25T07:50:26;36.20;62.30
17152;DHT22;8691;50.828;4.700;2022-08-25T07:52:52;37.40;59.10
17152;DHT22;8691;50.828;4.700;2022-08-25T07:55:19;38.00;57.80
17152;DHT22;8691;50.828;4.700;2022-08-25T07:57:46;37.90;56.90
17152;DHT22;8691;50.828;4.700;2022-08-25T08:00:13;37.30;57.10
17152;DHT22;8691;50.828;4.700;2022-08-25T08:02:40;37.10;57.40
17152;DHT22;8691;50.828;4.700;2022-08-25T08:05:07;36.70;57.50
17152;DHT22;8691;50.828;4.700;2022-08-25T08:07:34;36.80;56.90
17152;DHT22;8691;50.828;4.700;2022-08-25T08:10:02;36.80;56.60
17152;DHT22;8691;50.828;4.700;2022-08-25T08:12:28;37.40;55.00
17152;DHT22;8691;50.828;4.700;2022-08-25T08:14:55;37.70;54.90
17152;DHT22;8691;50.828;4.700;2022-08-25T08:17:23;38.80;52.80
17152;DHT22;8691;50.828;4.700;2022-08-25T08:19:50;38.70;52.70
17152;DHT22;8691;50.828;4.700;2022-08-25T08:22:17;38.70;53.20
17152;DHT22;8691;50.828;4.700;2022-08-25T08:24:44;39.40;52.60
17152;DHT22;8691;50.828;4.700;2022-08-25T08:27:12;40.50;51.10
17152;DHT22;8691;50.828;4.700;2022-08-25T08:29:39;40.50;50.60
17152;DHT22;8691;50.828;4.700;2022-08-25T08:32:06;40.50;49.90
17152;DHT22;8691;50.828;4.700;2022-08-25T08:34:32;40.40;49.80
17152;DHT22;8691;50.828;4.700;2022-08-25T08:37:00;40.30;49.80
17152;DHT22;8691;50.828;4.700;2022-08-25T08:39:27;40.60;49.40
17152;DHT22;8691;50.828;4.700;2022-08-25T08:42:06;40.40;49.10
17152;DHT22;8691;50.828;4.700;2022-08-25T08:52:36;41.20;49.10
17152;DHT22;8691;50.828;4.700;2022-08-25T08:55:02;41.80;47.40
17152;DHT22;8691;50.828;4.700;2022-08-25T08:57:29;42.10;47.00
17152;DHT22;8691;50.828;4.700;2022-08-25T08:59:59;42.20;46.50
17152;DHT22;8691;50.828;4.700;2022-08-25T09:02:40;42.10;46.70
17152;DHT22;8691;50.828;4.700;2022-08-25T09:05:06;42.10;46.20
17152;DHT22;8691;50.828;4.700;2022-08-25T09:07:35;42.20;46.10
17152;DHT22;8691;50.828;4.700;2022-08-25T09:10:01;42.20;45.90
17152;DHT22;8691;50.828;4.700;2022-08-25T09:18:13;42.00;45.10
17152;DHT22;8691;50.828;4.700;2022-08-25T09:26:32;42.30;42.60
17152;DHT22;8691;50.828;4.700;2022-08-25T09:29:14;42.40;42.70
17152;DHT22;8691;50.828;4.700;2022-08-25T09:31:40;42.40;42.20
17152;DHT22;8691;50.828;4.700;2022-08-25T09:34:20;42.40;42.20
17152;DHT22;8691;50.828;4.700;2022-08-25T09:36:45;42.40;42.00
17152;DHT22;8691;50.828;4.700;2022-08-25T09:39:12;42.10;42.30
17152;DHT22;8691;50.828;4.700;2022-08-25T09:41:46;42.50;42.00
17152;DHT22;8691;50.828;4.700;2022-08-25T09:46:55;42.20;41.50
17152;DHT22;8691;50.828;4.700;2022-08-25T09:49:21;42.20;41.50
17152;DHT22;8691;50.828;4.700;2022-08-25T09:51:48;42.10;41.60
17152;DHT22;8691;50.828;4.700;2022-08-25T09:54:18;41.60;41.80
17152;DHT22;8691;50.828;4.700;2022-08-25T09:56:49;41.60;41.80
17152;DHT22;8691;50.828;4.700;2022-08-25T10:01:57;41.70;42.00
17152;DHT22;8691;50.828;4.700;2022-08-25T10:04:31;42.00;41.20
17152;DHT22;8691;50.828;4.700;2022-08-25T10:07:00;42.00;40.40
17152;DHT22;8691;50.828;4.700;2022-08-25T10:09:30;41.20;40.60
17152;DHT22;8691;50.828;4.700;2022-08-25T10:11:56;41.40;40.90
17152;DHT22;8691;50.828;4.700;2022-08-25T10:14:36;42.10;40.90
17152;DHT22;8691;50.828;4.700;2022-08-25T10:17:25;42.80;40.20
17152;DHT22;8691;50.828;4.700;2022-08-25T10:19:54;42.60;39.40
17152;DHT22;8691;50.828;4.700;2022-08-25T10:22:25;42.50;39.00
17152;DHT22;8691;50.828;4.700;2022-08-25T10:24:50;42.20;39.50
17152;DHT22;8691;50.828;4.700;2022-08-25T10:27:37;42.00;40.60
17152;DHT22;8691;50.828;4.700;2022-08-25T10:43:05;41.20;37.70
17152;DHT22;8691;50.828;4.700;2022-08-25T10:45:33;40.80;38.90
17152;DHT22;8691;50.828;4.700;2022-08-25T10:53:46;40.00;39.80
17152;DHT22;8691;50.828;4.700;2022-08-25T11:04:35;38.40;41.40
17152;DHT22;8691;50.828;4.700;2022-08-25T11:07:06;38.60;41.60
17152;DHT22;8691;50.828;4.700;2022-08-25T11:09:36;38.20;42.20
17152;DHT22;8691;50.828;4.700;2022-08-25T11:12:12;38.20;42.20
17152;DHT22;8691;50.828;4.700;2022-08-25T11:14:54;38.00;42.00
17152;DHT22;8691;50.828;4.700;2022-08-25T11:19:46;37.30;43.00
17152;DHT22;8691;50.828;4.700;2022-08-25T11:22:19;37.30;42.80
17152;DHT22;8691;50.828;4.700;2022-08-25T11:24:57;37.40;43.00
17152;DHT22;8691;50.828;4.700;2022-08-25T11:27:22;37.30;42.70
17152;DHT22;8691;50.828;4.700;2022-08-25T11:29:58;36.80;43.80
17152;DHT22;8691;50.828;4.700;2022-08-25T11:32:20;36.80;44.40
17152;DHT22;8691;50.828;4.700;2022-08-25T11:34:47;36.80;43.90
17152;DHT22;8691;50.828;4.700;2022-08-25T11:37:24;36.90;44.50
17152;DHT22;8691;50.828;4.700;2022-08-25T11:40:07;37.00;44.30
17152;DHT22;8691;50.828;4.700;2022-08-25T11:42:38;37.10;44.20
17152;DHT22;8691;50.828;4.700;2022-08-25T11:45:11;36.90;43.70
17152;DHT22;8691;50.828;4.700;2022-08-25T11:50:30;36.90;43.70
17152;DHT22;8691;50.828;4.700;2022-08-25T11:53:16;37.00;44.40
17152;DHT22;8691;50.828;4.700;2022-08-25T11:56:00;37.20;43.70
17152;DHT22;8691;50.828;4.700;2022-08-25T11:58:21;36.70;44.00
17152;DHT22;8691;50.828;4.700;2022-08-25T12:00:43;36.60;44.20
17152;DHT22;8691;50.828;4.700;2022-08-25T12:06:18;36.60;44.50
17152;DHT22;8691;50.828;4.700;2022-08-25T12:09:14;36.90;44.70
17152;DHT22;8691;50.828;4.700;2022-08-25T12:11:43;36.90;44.00
17152;DHT22;8691;50.828;4.700;2022-08-25T12:14:31;36.80;44.00
17152;DHT22;8691;50.828;4.700;2022-08-25T12:27:25;36.80;43.60
17152;DHT22;8691;50.828;4.700;2022-08-25T12:35:23;36.20;44.00
17152;DHT22;8691;50.828;4.700;2022-08-25T12:38:04;35.90;45.40
17152;DHT22;8691;50.828;4.700;2022-08-25T12:40:34;36.00;46.30
17152;DHT22;8691;50.828;4.700;2022-08-25T12:45:40;36.00;44.90
17152;DHT22;8691;50.828;4.700;2022-08-25T12:51:04;35.60;45.10
17152;DHT22;8691;50.828;4.700;2022-08-25T12:58:46;35.20;45.40
17152;DHT22;8691;50.828;4.700;2022-08-25T13:03:49;35.30;45.40
17152;DHT22;8691;50.828;4.700;2022-08-25T13:09:19;35.80;44.90
17152;DHT22;8691;50.828;4.700;2022-08-25T13:11:57;36.10;44.60
17152;DHT22;8691;50.828;4.700;2022-08-25T13:14:20;36.10;45.20
17152;DHT22;8691;50.828;4.700;2022-08-25T13:16:52;36.30;44.10
17152;DHT22;8691;50.828;4.700;2022-08-25T13:19:18;36.50;44.60
17152;DHT22;8691;50.828;4.700;2022-08-25T13:21:45;36.70;44.30
17152;DHT22;8691;50.828;4.700;2022-08-25T13:24:25;36.60;44.20
17152;DHT22;8691;50.828;4.700;2022-08-25T13:26:49;36.40;44.10
17152;DHT22;8691;50.828;4.700;2022-08-25T13:29:17;36.10;44.50
17152;DHT22;8691;50.828;4.700;2022-08-25T13:31:55;36.00;44.70
17152;DHT22;8691;50.828;4.700;2022-08-25T13:34:22;36.00;44.30
17152;DHT22;8691;50.828;4.700;2022-08-25T13:36:48;35.90;44.40
17152;DHT22;8691;50.828;4.700;2022-08-25T13:39:32;35.80;44.90
17152;DHT22;8691;50.828;4.700;2022-08-25T13:41:59;36.00;44.50
17152;DHT22;8691;50.828;4.700;2022-08-25T13:44:28;36.20;44.10
17152;DHT22;8691;50.828;4.700;2022-08-25T13:47:31;36.20;44.70
17152;DHT22;8691;50.828;4.700;2022-08-25T13:49:42;36.50;44.10
17152;DHT22;8691;50.828;4.700;2022-08-25T13:52:14;36.60;44.50
17152;DHT22;8691;50.828;4.700;2022-08-25T13:54:37;36.80;44.50
17152;DHT22;8691;50.828;4.700;2022-08-25T13:57:21;37.20;43.40
17152;DHT22;8691;50.828;4.700;2022-08-25T13:59:52;37.20;43.40
17152;DHT22;8691;50.828;4.700;2022-08-25T14:05:04;36.90;43.30
17152;DHT22;8691;50.828;4.700;2022-08-25T14:07:31;36.80;43.30
17152;DHT22;8691;50.828;4.700;2022-08-25T14:10:18;36.80;43.30
17152;DHT22;8691;50.828;4.700;2022-08-25T14:12:38;36.80;43.50
17152;DHT22;8691;50.828;4.700;2022-08-25T14:17:33;36.70;44.40
17152;DHT22;8691;50.828;4.700;2022-08-25T14:20:00;36.70;44.50
17152;DHT22;8691;50.828;4.700;2022-08-25T14:22:27;36.70;44.20
17152;DHT22;8691;50.828;4.700;2022-08-25T14:24:55;36.60;44.20
17152;DHT22;8691;50.828;4.700;2022-08-25T14:27:22;36.60;44.20
17152;DHT22;8691;50.828;4.700;2022-08-25T14:29:49;36.60;43.80
17152;DHT22;8691;50.828;4.700;2022-08-25T14:32:16;36.50;43.90
17152;DHT22;8691;50.828;4.700;2022-08-25T14:34:43;36.50;44.20
17152;DHT22;8691;50.828;4.700;2022-08-25T14:37:16;36.20;44.70
17152;DHT22;8691;50.828;4.700;2022-08-25T14:39:39;36.10;44.90
17152;DHT22;8691;50.828;4.700;2022-08-25T14:42:06;36.10;44.80
17152;DHT22;8691;50.828;4.700;2022-08-25T14:44:33;36.20;45.50
17152;DHT22;8691;50.828;4.700;2022-08-25T14:47:00;36.00;45.60
17152;DHT22;8691;50.828;4.700;2022-08-25T14:49:28;35.70;45.90
17152;DHT22;8691;50.828;4.700;2022-08-25T14:51:55;35.60;46.00
17152;DHT22;8691;50.828;4.700;2022-08-25T14:54:22;35.60;46.20
17152;DHT22;8691;50.828;4.700;2022-08-25T14:56:48;35.60;45.90
17152;DHT22;8691;50.828;4.700;2022-08-25T14:59:15;35.60;45.30
17152;DHT22;8691;50.828;4.700;2022-08-25T15:01:42;35.40;46.10
17152;DHT22;8691;50.828;4.700;2022-08-25T15:04:11;35.50;45.90
17152;DHT22;8691;50.828;4.700;2022-08-25T15:06:36;35.40;45.90
17152;DHT22;8691;50.828;4.700;2022-08-25T15:09:04;35.50;46.60
17152;DHT22;8691;50.828;4.700;2022-08-25T15:11:46;35.40;46.50
17152;DHT22;8691;50.828;4.700;2022-08-25T15:14:12;35.10;48.20
17152;DHT22;8691;50.828;4.700;2022-08-25T15:16:40;34.80;51.30
17152;DHT22;8691;50.828;4.700;2022-08-25T15:19:10;34.80;51.30
17152;DHT22;8691;50.828;4.700;2022-08-25T15:21:36;34.60;52.30
17152;DHT22;8691;50.828;4.700;2022-08-25T15:24:04;34.30;53.70
17152;DHT22;8691;50.828;4.700;2022-08-25T15:26:33;34.30;53.70
17152;DHT22;8691;50.828;4.700;2022-08-25T15:28:58;34.50;53.60
17152;DHT22;8691;50.828;4.700;2022-08-25T15:31:26;34.40;53.90
17152;DHT22;8691;50.828;4.700;2022-08-25T15:33:52;34.40;53.90
17152;DHT22;8691;50.828;4.700;2022-08-25T15:36:20;34.50;53.60
17152;DHT22;8691;50.828;4.700;2022-08-25T15:38:46;34.50;54.70
17152;DHT22;8691;50.828;4.700;2022-08-25T15:41:14;34.10;55.20
17152;DHT22;8691;50.828;4.700;2022-08-25T15:43:41;33.80;55.50
17152;DHT22;8691;50.828;4.700;2022-08-25T15:46:08;33.50;55.60
17152;DHT22;8691;50.828;4.700;2022-08-25T15:48:35;33.50;55.60
17152;DHT22;8691;50.828;4.700;2022-08-25T15:51:03;33.40;56.20
17152;DHT22;8691;50.828;4.700;2022-08-25T15:53:30;33.20;56.40
17152;DHT22;8691;50.828;4.700;2022-08-25T15:55:56;33.00;57.30
17152;DHT22;8691;50.828;4.700;2022-08-25T15:58:23;32.90;58.00
17152;DHT22;8691;50.828;4.700;2022-08-25T16:00:51;32.80;57.80
17152;DHT22;8691;50.828;4.700;2022-08-25T16:03:17;32.70;57.60
17152;DHT22;8691;50.828;4.700;2022-08-25T16:05:45;32.70;57.80
17152;DHT22;8691;50.828;4.700;2022-08-25T16:08:12;32.80;58.00
17152;DHT22;8691;50.828;4.700;2022-08-25T16:10:40;32.70;58.00
17152;DHT22;8691;50.828;4.700;2022-08-25T16:13:06;32.80;58.20
17152;DHT22;8691;50.828;4.700;2022-08-25T16:15:33;32.90;57.60
17152;DHT22;8691;50.828;4.700;2022-08-25T16:18:01;32.90;58.00
17152;DHT22;8691;50.828;4.700;2022-08-25T16:20:28;32.90;58.30
17152;DHT22;8691;50.828;4.700;2022-08-25T16:22:54;33.10;59.40
17152;DHT22;8691;50.828;4.700;2022-08-25T16:25:21;32.90;63.70
17152;DHT22;8691;50.828;4.700;2022-08-25T16:27:48;32.50;66.30
17152;DHT22;8691;50.828;4.700;2022-08-25T16:30:16;32.10;70.00
17152;DHT22;8691;50.828;4.700;2022-08-25T16:32:44;31.90;71.50
17152;DHT22;8691;50.828;4.700;2022-08-25T16:35:10;31.90;71.50
17152;DHT22;8691;50.828;4.700;2022-08-25T16:37:37;31.80;72.90
17152;DHT22;8691;50.828;4.700;2022-08-25T16:40:04;31.60;74.70
17152;DHT22;8691;50.828;4.700;2022-08-25T16:42:31;31.50;76.30
17152;DHT22;8691;50.828;4.700;2022-08-25T16:44:58;31.30;79.40
17152;DHT22;8691;50.828;4.700;2022-08-25T16:47:25;31.20;80.50
17152;DHT22;8691;50.828;4.700;2022-08-25T16:49:52;31.10;82.20
17152;DHT22;8691;50.828;4.700;2022-08-25T16:52:19;30.90;82.90
17152;DHT22;8691;50.828;4.700;2022-08-25T16:55:04;30.80;83.90
17152;DHT22;8691;50.828;4.700;2022-08-25T16:57:41;30.50;84.90
17152;DHT22;8691;50.828;4.700;2022-08-25T17:00:08;30.30;86.40
17152;DHT22;8691;50.828;4.700;2022-08-25T17:02:34;30.20;87.10
17152;DHT22;8691;50.828;4.700;2022-08-25T17:05:01;30.10;88.00
17152;DHT22;8691;50.828;4.700;2022-08-25T17:07:28;30.00;87.90
17152;DHT22;8691;50.828;4.700;2022-08-25T17:09:55;30.00;88.40
17152;DHT22;8691;50.828;4.700;2022-08-25T17:12:22;29.90;88.30
17152;DHT22;8691;50.828;4.700;2022-08-25T17:14:48;29.80;88.90
17152;DHT22;8691;50.828;4.700;2022-08-25T17:17:16;29.70;89.80
17152;DHT22;8691;50.828;4.700;2022-08-25T17:19:43;29.70;89.80
17152;DHT22;8691;50.828;4.700;2022-08-25T17:22:10;29.60;90.10
17152;DHT22;8691;50.828;4.700;2022-08-25T17:24:43;29.50;90.80
17152;DHT22;8691;50.828;4.700;2022-08-25T17:27:10;29.40;91.40
17152;DHT22;8691;50.828;4.700;2022-08-25T17:29:36;29.30;92.00
17152;DHT22;8691;50.828;4.700;2022-08-25T17:32:03;29.10;92.80